createdAt,value
2018-05-07T00:00:33.366Z,14.00
2018-05-07T00:02:36.871Z,13.90
2018-05-07T00:04:40.419Z,13.90
2018-05-07T00:06:44.821Z,13.80
2018-05-07T00:08:48.338Z,13.80
2018-05-07T00:10:51.824Z,13.80
2018-05-07T00:12:56.124Z,13.70
2018-05-07T00:14:59.578Z,13.70
2018-05-07T00:17:03.052Z,13.70
2018-05-07T00:19:06.510Z,13.70
2018-05-07T00:21:09.983Z,13.70
2018-05-07T00:23:13.473Z,13.70
2018-05-07T00:25:16.936Z,13.70
2018-05-07T00:27:21.142Z,13.70
2018-05-07T00:29:24.660Z,13.70
2018-05-07T00:31:28.096Z,13.70
2018-05-07T00:33:32.350Z,13.70
2018-05-07T00:35:35.838Z,13.60
2018-05-07T00:37:39.273Z,13.60
2018-05-07T00:39:43.629Z,13.60
2018-05-07T00:41:47.081Z,13.60
2018-05-07T00:43:50.589Z,13.60
2018-05-07T00:45:54.075Z,13.60
2018-05-07T00:47:58.370Z,13.50
2018-05-07T00:50:01.815Z,13.50
2018-05-07T00:52:06.803Z,13.50
2018-05-07T00:54:10.265Z,13.50
2018-05-07T00:56:13.729Z,13.50
2018-05-07T00:58:17.221Z,13.40
2018-05-07T01:00:21.425Z,13.40
2018-05-07T01:02:25.634Z,13.30
2018-05-07T01:04:29.096Z,13.30
2018-05-07T01:06:32.553Z,13.30
2018-05-07T01:08:36.048Z,13.30
2018-05-07T01:10:39.500Z,13.30
2018-05-07T01:12:43.011Z,13.20
2018-05-07T01:14:46.432Z,13.20
2018-05-07T01:16:49.870Z,13.20
2018-05-07T01:18:54.141Z,13.10
2018-05-07T01:20:57.567Z,13.10
2018-05-07T01:23:01.026Z,13.10
2018-05-07T01:25:04.480Z,13.00
2018-05-07T01:27:07.928Z,13.00
2018-05-07T01:29:12.162Z,13.00
2018-05-07T01:31:15.603Z,13.00
2018-05-07T01:33:19.832Z,12.90
2018-05-07T01:35:23.291Z,12.90
2018-05-07T01:37:27.503Z,12.90
2018-05-07T01:39:31.756Z,12.80
2018-05-07T01:41:35.213Z,12.80
2018-05-07T01:43:39.495Z,12.70
2018-05-07T01:45:42.944Z,12.70
2018-05-07T01:47:46.389Z,12.70
2018-05-07T01:49:49.918Z,12.70
2018-05-07T01:51:54.168Z,12.60
2018-05-07T01:53:57.643Z,12.50
2018-05-07T01:56:01.071Z,12.50
2018-05-07T01:58:04.514Z,12.50
2018-05-07T02:00:08.744Z,12.40
2018-05-07T02:02:12.183Z,12.40
2018-05-07T02:04:15.651Z,12.40
2018-05-07T02:06:19.111Z,12.40
2018-05-07T02:08:22.567Z,12.40
2018-05-07T02:10:26.010Z,12.30
2018-05-07T02:12:29.450Z,12.30
2018-05-07T02:14:32.899Z,12.30
2018-05-07T02:16:36.325Z,12.30
2018-05-07T02:18:39.788Z,12.20
2018-05-07T02:20:43.225Z,12.20
2018-05-07T02:22:46.678Z,12.10
2018-05-07T02:24:50.145Z,12.10
2018-05-07T02:26:54.375Z,12.00
2018-05-07T02:28:57.869Z,12.00
2018-05-07T02:31:02.081Z,12.00
2018-05-07T02:33:05.509Z,12.00
2018-05-07T02:35:09.005Z,12.00
2018-05-07T02:37:12.439Z,11.90
2018-05-07T02:39:15.894Z,11.90
2018-05-07T02:41:19.355Z,11.90
2018-05-07T02:43:22.812Z,11.80
2018-05-07T02:45:26.270Z,11.80
2018-05-07T02:47:29.715Z,11.80
2018-05-07T02:49:33.951Z,11.70
2018-05-07T02:51:37.390Z,11.70
2018-05-07T02:53:40.879Z,11.70
2018-05-07T02:55:44.305Z,11.70
2018-05-07T02:57:48.503Z,11.60
2018-05-07T02:59:51.986Z,11.60
2018-05-07T03:01:55.418Z,11.60
2018-05-07T03:03:59.658Z,11.50
2018-05-07T03:06:03.100Z,11.50
2018-05-07T03:08:06.542Z,11.50
2018-05-07T03:10:10.021Z,11.50
2018-05-07T03:12:13.553Z,11.40
2018-05-07T03:14:16.972Z,11.40
2018-05-07T03:16:20.408Z,11.40
2018-05-07T03:18:23.866Z,11.30
2018-05-07T03:20:27.368Z,11.30
2018-05-07T03:22:31.668Z,11.30
2018-05-07T03:24:35.138Z,11.30
2018-05-07T03:26:38.615Z,11.20
2018-05-07T03:28:42.081Z,11.20
2018-05-07T03:30:45.543Z,11.20
2018-05-07T03:32:48.980Z,11.20
2018-05-07T03:34:52.448Z,11.20
2018-05-07T03:36:56.667Z,11.10
2018-05-07T03:39:00.907Z,11.10
2018-05-07T03:41:04.384Z,11.10
2018-05-07T03:43:07.850Z,11.00
2018-05-07T03:45:12.084Z,11.00
2018-05-07T03:47:16.285Z,10.90
2018-05-07T03:49:20.528Z,10.90
2018-05-07T03:51:23.968Z,10.90
2018-05-07T03:53:27.913Z,10.90
2018-05-07T03:55:31.481Z,10.90
2018-05-07T03:57:34.988Z,10.90
2018-05-07T03:59:39.334Z,11.00
2018-05-07T04:01:42.794Z,11.00
2018-05-07T04:03:47.028Z,11.00
2018-05-07T04:05:50.462Z,11.00
2018-05-07T04:07:53.917Z,10.90
2018-05-07T04:09:57.468Z,10.90
2018-05-07T04:12:00.965Z,10.80
2018-05-07T04:14:04.454Z,10.80
2018-05-07T04:16:08.701Z,10.80
2018-05-07T04:18:24.112Z,10.80
2018-05-07T04:23:18.684Z,10.80
2018-05-07T04:25:22.177Z,10.80
2018-05-07T04:27:25.784Z,10.80
2018-05-07T04:29:29.288Z,10.80
2018-05-07T04:31:32.730Z,10.80
2018-05-07T04:33:36.224Z,10.80
2018-05-07T04:35:39.721Z,10.80
2018-05-07T04:37:43.178Z,10.70
2018-05-07T04:39:46.652Z,10.70
2018-05-07T04:41:50.107Z,10.70
2018-05-07T04:43:54.340Z,10.70
2018-05-07T04:45:59.044Z,10.70
2018-05-07T04:48:02.480Z,10.70
2018-05-07T04:50:05.984Z,10.80
2018-05-07T04:52:12.008Z,10.80
2018-05-07T04:54:15.545Z,10.80
2018-05-07T04:56:19.017Z,10.80
2018-05-07T04:58:22.532Z,10.80
2018-05-07T05:00:26.110Z,10.90
2018-05-07T05:02:30.489Z,10.90
2018-05-07T05:04:34.777Z,11.00
2018-05-07T05:06:38.326Z,10.90
2018-05-07T05:08:41.804Z,11.00
2018-05-07T05:10:46.045Z,11.10
2018-05-07T05:12:49.727Z,11.00
2018-05-07T05:14:53.273Z,11.10
2018-05-07T05:16:56.765Z,11.20
2018-05-07T05:19:01.050Z,11.20
2018-05-07T05:21:04.609Z,11.30
2018-05-07T05:23:08.027Z,11.40
2018-05-07T05:25:11.496Z,11.50
2018-05-07T05:27:15.085Z,11.60
2018-05-07T05:29:19.418Z,11.70
2018-05-07T05:31:22.913Z,11.70
2018-05-07T05:33:27.132Z,11.90
2018-05-07T05:35:30.607Z,12.00
2018-05-07T05:37:34.117Z,12.10
2018-05-07T05:39:37.596Z,12.20
2018-05-07T05:41:41.080Z,12.40
2018-05-07T05:43:44.593Z,12.50
2018-05-07T05:45:49.975Z,12.80
2018-05-07T05:47:53.513Z,12.80
2018-05-07T05:49:57.972Z,13.00
2018-05-07T05:52:01.401Z,13.10
2018-05-07T05:54:04.886Z,13.20
2018-05-07T05:56:08.411Z,13.40
2018-05-07T05:58:12.656Z,13.80
2018-05-07T06:00:16.220Z,13.80
2018-05-07T06:02:19.687Z,14.00
2018-05-07T06:04:23.179Z,14.10
2018-05-07T06:06:26.605Z,14.30
2018-05-07T06:08:30.076Z,14.50
2018-05-07T06:10:33.806Z,14.60
2018-05-07T06:12:37.237Z,14.80
2018-05-07T06:14:40.837Z,14.90
2018-05-07T06:16:44.234Z,15.00
2018-05-07T06:18:47.756Z,15.10
2018-05-07T06:20:51.237Z,15.20
2018-05-07T06:22:54.721Z,15.30
2018-05-07T06:24:59.179Z,15.40
2018-05-07T06:27:03.608Z,15.70
2018-05-07T06:29:07.862Z,15.90
2018-05-07T06:31:11.304Z,15.80
2018-05-07T06:33:15.517Z,16.10
2018-05-07T06:35:19.005Z,16.10
2018-05-07T06:39:32.139Z,16.20
2018-05-07T06:41:36.365Z,16.50
2018-05-07T06:43:39.886Z,16.50
2018-05-07T06:45:43.383Z,16.70
2018-05-07T06:47:47.311Z,16.80
2018-05-07T06:49:50.807Z,16.90
2018-05-07T06:51:55.027Z,17.20
2018-05-07T06:53:58.500Z,17.20
2018-05-07T06:56:02.114Z,17.30
2018-05-07T06:58:05.569Z,17.50
2018-05-07T07:00:09.774Z,17.60
2018-05-07T07:02:13.626Z,17.50
2018-05-07T07:04:17.855Z,17.40
2018-05-07T07:06:22.807Z,17.40
2018-05-07T07:08:26.402Z,17.30
2018-05-07T07:10:29.864Z,17.30
2018-05-07T07:12:34.042Z,17.30
2018-05-07T07:14:37.748Z,17.30
2018-05-07T07:16:41.684Z,17.30
2018-05-07T07:18:50.091Z,17.40
2018-05-07T07:20:53.616Z,17.50
2018-05-07T07:22:57.626Z,17.70
2018-05-07T07:25:01.187Z,17.80
2018-05-07T07:27:04.637Z,17.90
2018-05-07T07:29:08.926Z,18.10
2018-05-07T07:31:12.358Z,18.10
2018-05-07T07:33:16.644Z,18.30
2018-05-07T07:35:20.894Z,18.40
2018-05-07T07:37:24.325Z,18.40
2018-05-07T07:39:27.888Z,18.60
2018-05-07T07:41:32.043Z,18.60
2018-05-07T07:43:35.477Z,18.70
2018-05-07T07:45:39.786Z,18.70
2018-05-07T07:47:43.239Z,18.70
2018-05-07T07:49:46.719Z,18.80
2018-05-07T07:51:50.223Z,18.80
2018-05-07T07:53:53.815Z,18.70
2018-05-07T07:55:57.174Z,18.50
2018-05-07T07:58:01.777Z,18.60
2018-05-07T08:00:05.237Z,18.70
2018-05-07T08:02:09.489Z,18.70
2018-05-07T08:04:13.020Z,18.70
2018-05-07T08:06:16.444Z,18.90
2018-05-07T08:08:19.867Z,19.10
2018-05-07T08:10:24.077Z,19.70
2018-05-07T08:12:28.382Z,19.90
2018-05-07T08:14:31.787Z,19.90
2018-05-07T08:16:35.241Z,20.10
2018-05-07T08:18:38.679Z,20.10
2018-05-07T08:20:42.173Z,19.90
2018-05-07T08:22:46.385Z,19.80
2018-05-07T08:24:49.963Z,19.80
2018-05-07T08:26:53.440Z,19.90
2018-05-07T08:28:56.876Z,20.00
2018-05-07T08:31:00.332Z,20.00
2018-05-07T08:33:04.543Z,20.30
2018-05-07T08:35:08.038Z,20.20
2018-05-07T08:37:12.393Z,20.40
2018-05-07T08:39:15.844Z,20.40
2018-05-07T08:41:20.093Z,20.70
2018-05-07T08:43:23.558Z,20.60
2018-05-07T08:45:27.789Z,21.00
2018-05-07T08:47:31.980Z,20.90
2018-05-07T08:49:36.332Z,20.80
2018-05-07T08:51:39.785Z,20.80
2018-05-07T08:53:43.227Z,20.90
2018-05-07T08:55:46.717Z,21.00
2018-05-07T08:57:50.217Z,21.00
2018-05-07T08:59:53.671Z,21.00
2018-05-07T09:01:57.146Z,21.00
2018-05-07T09:04:00.605Z,21.20
2018-05-07T09:06:04.058Z,21.50
2018-05-07T09:08:07.651Z,21.50
2018-05-07T09:10:11.058Z,21.40
2018-05-07T09:12:14.495Z,21.40
2018-05-07T09:14:17.932Z,21.40
2018-05-07T09:16:21.432Z,21.60
2018-05-07T09:18:24.873Z,21.80
2018-05-07T09:20:28.332Z,21.90
2018-05-07T09:22:32.217Z,22.00
2018-05-07T09:24:36.435Z,22.10
2018-05-07T09:26:39.911Z,22.10
2018-05-07T09:28:43.339Z,22.00
2018-05-07T09:30:46.822Z,21.90
2018-05-07T09:32:50.281Z,22.10
2018-05-07T09:34:53.749Z,22.40
2018-05-07T09:36:57.850Z,22.60
2018-05-07T09:39:01.301Z,22.70
2018-05-07T09:41:04.781Z,22.40
2018-05-07T09:43:08.250Z,22.30
2018-05-07T09:45:11.741Z,22.30
2018-05-07T09:47:15.313Z,22.30
2018-05-07T09:49:18.741Z,22.40
2018-05-07T09:51:22.250Z,22.40
2018-05-07T09:53:26.493Z,22.50
2018-05-07T09:55:30.828Z,22.70
2018-05-07T09:57:34.355Z,22.70
2018-05-07T09:59:37.816Z,23.00
2018-05-07T10:01:41.296Z,23.30
2018-05-07T10:03:45.492Z,23.60
2018-05-07T10:05:48.988Z,23.60
2018-05-07T10:07:53.240Z,23.80
2018-05-07T10:10:00.280Z,23.80
2018-05-07T10:12:04.520Z,23.80
2018-05-07T10:14:08.012Z,23.80
2018-05-07T10:16:11.896Z,24.20
2018-05-07T10:18:15.329Z,24.50
2018-05-07T10:20:18.838Z,24.50
2018-05-07T10:22:22.269Z,24.20
2018-05-07T10:24:26.491Z,23.80
2018-05-07T10:26:29.964Z,23.80
2018-05-07T10:28:33.427Z,23.80
2018-05-07T10:30:36.909Z,23.90
2018-05-07T10:32:40.900Z,23.70
2018-05-07T10:34:44.342Z,23.60
2018-05-07T10:36:51.609Z,23.70
2018-05-07T10:38:55.055Z,23.80
2018-05-07T10:40:59.267Z,23.80
2018-05-07T10:43:02.695Z,23.80
2018-05-07T10:45:06.131Z,24.00
2018-05-07T10:47:09.627Z,23.90
2018-05-07T10:49:13.893Z,24.20
2018-05-07T10:51:17.346Z,24.10
2018-05-07T10:53:20.789Z,24.50
2018-05-07T10:55:24.260Z,24.70
2018-05-07T10:57:27.684Z,24.80
2018-05-07T10:59:31.884Z,24.70
2018-05-07T11:01:35.597Z,24.00
2018-05-07T11:03:39.025Z,23.80
2018-05-07T11:05:42.580Z,23.70
2018-05-07T11:07:46.032Z,23.70
2018-05-07T11:09:50.232Z,24.10
2018-05-07T11:11:54.502Z,24.30
2018-05-07T11:13:57.932Z,24.30
2018-05-07T11:16:02.123Z,24.30
2018-05-07T11:18:05.604Z,24.20
2018-05-07T11:20:13.040Z,24.00
2018-05-07T11:22:17.240Z,23.80
2018-05-07T11:24:21.462Z,23.90
2018-05-07T11:26:24.983Z,23.90
2018-05-07T11:28:28.406Z,24.20
2018-05-07T11:30:31.890Z,24.40
2018-05-07T11:32:35.336Z,24.70
2018-05-07T11:34:38.834Z,25.00
2018-05-07T11:36:44.869Z,24.80
2018-05-07T11:38:48.306Z,24.80
2018-05-07T11:40:51.774Z,24.80
2018-05-07T11:42:55.270Z,24.90
2018-05-07T11:44:59.500Z,25.30
2018-05-07T11:47:02.976Z,25.30
2018-05-07T11:49:07.156Z,25.40
2018-05-07T11:51:10.617Z,25.40
2018-05-07T11:53:14.125Z,25.30
2018-05-07T11:55:18.360Z,25.00
2018-05-07T11:57:21.889Z,25.00
2018-05-07T11:59:25.313Z,25.00
2018-05-07T12:01:28.976Z,25.00
2018-05-07T12:03:32.412Z,25.10
2018-05-07T12:05:35.838Z,25.30
2018-05-07T12:07:39.297Z,25.40
2018-05-07T12:09:42.728Z,25.30
2018-05-07T12:11:46.977Z,25.00
2018-05-07T12:13:50.440Z,24.90
2018-05-07T12:15:53.973Z,24.90
2018-05-07T12:17:57.381Z,24.90
2018-05-07T12:20:00.818Z,24.90
2018-05-07T12:22:05.038Z,25.20
2018-05-07T12:24:09.247Z,25.20
2018-05-07T12:26:12.736Z,25.20
2018-05-07T12:28:16.174Z,25.00
2018-05-07T12:30:19.625Z,24.80
2018-05-07T12:32:23.878Z,24.70
2018-05-07T12:34:27.475Z,24.70
2018-05-07T12:36:30.919Z,24.80
2018-05-07T12:38:34.348Z,24.90
2018-05-07T12:40:37.812Z,25.10
2018-05-07T12:42:41.319Z,25.00
2018-05-07T12:44:45.534Z,25.10
2018-05-07T12:46:49.878Z,25.20
2018-05-07T12:48:53.250Z,25.20
2018-05-07T12:50:58.623Z,25.10
2018-05-07T12:53:02.184Z,25.10
2018-05-07T12:55:06.384Z,25.40
2018-05-07T12:57:10.612Z,25.50
2018-05-07T12:59:14.050Z,25.50
2018-05-07T13:01:17.528Z,25.80
2018-05-07T13:03:20.957Z,25.90
2018-05-07T13:05:24.388Z,25.70
2018-05-07T13:07:27.851Z,25.50
2018-05-07T13:09:32.170Z,25.40
2018-05-07T13:11:36.099Z,25.40
2018-05-07T13:13:39.647Z,25.30
2018-05-07T13:15:43.157Z,25.30
2018-05-07T13:17:46.713Z,25.40
2018-05-07T13:19:51.026Z,25.60
2018-05-07T13:21:54.467Z,25.80
2018-05-07T13:23:57.932Z,25.90
2018-05-07T13:26:01.392Z,26.00
2018-05-07T13:28:04.832Z,26.00
2018-05-07T13:30:08.334Z,26.30
2018-05-07T13:32:11.785Z,26.50
2018-05-07T13:34:15.286Z,26.60
2018-05-07T13:36:18.715Z,26.50
2018-05-07T13:38:22.198Z,26.40
2018-05-07T13:40:25.657Z,26.30
2018-05-07T13:42:29.095Z,26.30
2018-05-07T13:44:32.509Z,26.40
2018-05-07T13:46:36.721Z,26.00
2018-05-07T13:48:40.914Z,26.00
2018-05-07T13:50:45.135Z,25.80
2018-05-07T13:52:48.615Z,25.80
2018-05-07T13:54:52.055Z,25.90
2018-05-07T13:56:55.518Z,26.10
2018-05-07T13:58:59.007Z,26.10
2018-05-07T14:01:02.454Z,26.20
2018-05-07T14:03:05.898Z,26.10
2018-05-07T14:05:09.344Z,26.00
2018-05-07T14:07:12.825Z,26.00
2018-05-07T14:09:16.240Z,26.10
2018-05-07T14:11:19.720Z,26.40
2018-05-07T14:13:23.979Z,26.50
2018-05-07T14:15:27.395Z,26.60
2018-05-07T14:17:32.287Z,26.50
2018-05-07T14:19:35.700Z,26.50
2018-05-07T14:21:39.153Z,26.50
2018-05-07T14:23:44.372Z,26.40
2018-05-07T14:25:47.868Z,26.30
2018-05-07T14:27:51.693Z,26.00
2018-05-07T14:29:57.338Z,25.90
2018-05-07T14:32:01.035Z,25.80
2018-05-07T14:34:04.531Z,26.00
2018-05-07T14:36:07.963Z,26.20
2018-05-07T14:38:12.342Z,26.30
2018-05-07T14:40:15.808Z,26.30
2018-05-07T14:42:20.324Z,26.00
2018-05-07T14:44:23.786Z,25.80
2018-05-07T14:46:27.219Z,25.70
2018-05-07T14:48:30.699Z,25.70
2018-05-07T14:50:34.133Z,25.80
2018-05-07T14:52:37.580Z,25.70
2018-05-07T14:54:41.062Z,25.80
2018-05-07T14:56:45.262Z,25.90
2018-05-07T14:58:50.752Z,25.90
2018-05-07T15:00:54.265Z,26.00
2018-05-07T15:02:57.734Z,25.90
2018-05-07T15:05:01.167Z,25.70
2018-05-07T15:07:04.671Z,25.70
2018-05-07T15:09:08.106Z,25.60
2018-05-07T15:11:11.558Z,25.70
2018-05-07T15:13:15.062Z,25.60
2018-05-07T15:15:18.501Z,25.50
2018-05-07T15:17:21.955Z,25.40
2018-05-07T15:19:26.153Z,25.50
2018-05-07T15:21:29.600Z,25.50
2018-05-07T15:23:33.050Z,25.30
2018-05-07T15:25:36.479Z,25.30
2018-05-07T15:27:39.976Z,25.30
2018-05-07T15:29:43.428Z,25.30
2018-05-07T15:31:46.871Z,25.10
2018-05-07T15:33:51.565Z,24.80
2018-05-07T15:35:55.781Z,24.80
2018-05-07T15:37:59.296Z,24.90
2018-05-07T15:40:02.732Z,24.90
2018-05-07T15:42:06.230Z,24.80
2018-05-07T15:44:09.705Z,24.80
2018-05-07T15:46:13.172Z,24.80
2018-05-07T15:48:16.653Z,24.80
2018-05-07T15:50:21.269Z,24.70
2018-05-07T15:52:24.800Z,24.70
2018-05-07T15:54:28.279Z,24.80
2018-05-07T15:56:31.776Z,24.90
2018-05-07T15:58:35.269Z,25.00
2018-05-07T16:00:39.401Z,24.90
2018-05-07T16:02:43.398Z,25.00
2018-05-07T16:04:46.888Z,24.90
2018-05-07T16:06:50.328Z,24.80
2018-05-07T16:08:54.644Z,24.60
2018-05-07T16:10:58.086Z,24.60
2018-05-07T16:13:02.381Z,24.40
2018-05-07T16:15:06.192Z,24.40
2018-05-07T16:17:10.482Z,24.50
2018-05-07T16:19:14.728Z,24.50
2018-05-07T16:21:18.167Z,24.40
2018-05-07T16:23:21.861Z,24.50
2018-05-07T16:25:25.193Z,24.50
2018-05-07T16:27:29.709Z,24.20
2018-05-07T16:29:33.973Z,24.20
2018-05-07T16:31:37.456Z,24.20
2018-05-07T16:33:40.910Z,24.20
2018-05-07T16:35:44.370Z,24.20
2018-05-07T16:37:48.615Z,24.00
2018-05-07T16:39:52.046Z,24.00
2018-05-07T16:41:55.468Z,24.00
2018-05-07T16:43:59.727Z,23.90
2018-05-07T16:46:03.174Z,23.90
2018-05-07T16:48:06.641Z,24.00
2018-05-07T16:50:10.398Z,23.90
2018-05-07T16:52:13.849Z,23.80
2018-05-07T16:54:17.924Z,23.80
2018-05-07T16:56:21.410Z,23.80
2018-05-07T16:58:24.911Z,23.70
2018-05-07T17:00:28.400Z,23.70
2018-05-07T17:02:32.409Z,23.60
2018-05-07T17:04:36.709Z,23.50
2018-05-07T17:06:40.920Z,23.50
2018-05-07T17:08:44.435Z,23.50
2018-05-07T17:10:47.865Z,23.40
2018-05-07T17:12:51.319Z,23.40
2018-05-07T17:14:56.341Z,23.30
2018-05-07T17:16:59.777Z,23.30
2018-05-07T17:19:03.283Z,23.30
2018-05-07T17:21:06.734Z,23.20
2018-05-07T17:23:10.258Z,23.30
2018-05-07T17:25:14.069Z,23.20
2018-05-07T17:27:17.582Z,23.10
2018-05-07T17:29:21.985Z,23.10
2018-05-07T17:31:25.483Z,23.00
2018-05-07T17:33:29.228Z,22.90
2018-05-07T17:35:33.559Z,22.90
2018-05-07T17:37:37.452Z,22.90
2018-05-07T17:39:41.309Z,22.80
2018-05-07T17:41:45.118Z,22.80
2018-05-07T17:43:49.359Z,22.70
2018-05-07T17:46:05.313Z,22.70
2018-05-07T17:48:20.513Z,22.70
2018-05-07T17:50:25.684Z,22.50
2018-05-07T17:52:29.117Z,22.50
2018-05-07T17:54:32.616Z,22.50
2018-05-07T17:56:36.823Z,22.30
2018-05-07T17:58:40.313Z,22.30
2018-05-07T18:00:43.740Z,22.30
2018-05-07T18:02:47.177Z,22.30
2018-05-07T18:04:50.649Z,22.30
2018-05-07T18:06:54.096Z,22.20
2018-05-07T18:08:57.554Z,22.20
2018-05-07T18:11:02.191Z,22.10
2018-05-07T18:13:05.641Z,22.10
2018-05-07T18:15:09.108Z,22.10
2018-05-07T18:17:12.579Z,22.00
2018-05-07T18:19:16.121Z,22.00
2018-05-07T18:21:20.311Z,21.80
2018-05-07T18:23:24.526Z,21.70
2018-05-07T18:25:28.073Z,21.70
2018-05-07T18:27:31.531Z,21.70
2018-05-07T18:29:35.148Z,21.60
2018-05-07T18:31:38.641Z,21.60
2018-05-07T18:33:42.107Z,21.60
2018-05-07T18:35:45.569Z,21.60
2018-05-07T18:37:49.813Z,21.50
2018-05-07T18:39:53.270Z,21.50
2018-05-07T18:41:56.704Z,21.50
2018-05-07T18:44:00.219Z,21.50
2018-05-07T18:46:03.900Z,21.50
2018-05-07T18:48:07.351Z,21.60
2018-05-07T18:50:10.859Z,21.60
2018-05-07T18:52:14.289Z,21.60
2018-05-07T18:54:18.780Z,21.60
2018-05-07T18:56:23.006Z,21.50
2018-05-07T18:58:28.168Z,21.50
2018-05-07T19:00:32.038Z,21.50
2018-05-07T19:02:36.267Z,21.40
2018-05-07T19:04:39.738Z,21.40
2018-05-07T19:06:43.976Z,21.30
2018-05-07T19:08:47.442Z,21.30
2018-05-07T19:10:50.933Z,21.30
2018-05-07T19:12:54.373Z,21.20
2018-05-07T19:14:57.829Z,21.20
2018-05-07T19:17:02.061Z,21.10
2018-05-07T19:19:05.522Z,21.00
2018-05-07T19:21:09.638Z,21.00
2018-05-07T19:23:13.846Z,20.90
2018-05-07T19:25:18.094Z,20.90
2018-05-07T19:27:21.519Z,20.90
2018-05-07T19:29:24.980Z,20.90
2018-05-07T19:31:28.420Z,20.80
2018-05-07T19:33:32.657Z,20.70
2018-05-07T19:35:36.151Z,20.70
2018-05-07T19:37:40.362Z,20.60
2018-05-07T19:39:44.586Z,20.60
2018-05-07T19:41:48.792Z,20.50
2018-05-07T19:43:52.996Z,20.50
2018-05-07T19:45:56.499Z,20.40
2018-05-07T19:48:01.690Z,20.40
2018-05-07T19:50:05.149Z,20.40
2018-05-07T19:52:09.805Z,20.30
2018-05-07T19:54:16.075Z,20.20
2018-05-07T19:56:23.211Z,20.10
2018-05-07T19:58:29.165Z,20.00
2018-05-07T20:00:37.738Z,20.00
2018-05-07T20:02:43.195Z,19.90
2018-05-07T20:04:50.301Z,19.70
2018-05-07T20:06:55.022Z,19.80
2018-05-07T20:08:59.898Z,19.60
2018-05-07T20:11:05.131Z,19.50
2018-05-07T20:13:08.825Z,19.50
2018-05-07T20:15:12.728Z,19.40
2018-05-07T20:17:17.167Z,19.40
2018-05-07T20:19:22.028Z,19.30
2018-05-07T20:21:25.607Z,19.30
2018-05-07T20:23:30.525Z,19.20
2018-05-07T20:25:34.865Z,19.20
2018-05-07T20:27:38.988Z,19.10
2018-05-07T20:29:43.286Z,19.10
2018-05-07T20:31:46.824Z,19.00
2018-05-07T20:33:50.372Z,19.00
2018-05-07T20:35:56.709Z,18.90
2018-05-07T20:38:01.317Z,18.80
2018-05-07T20:40:04.796Z,18.80
2018-05-07T20:42:08.216Z,18.80
2018-05-07T20:44:11.688Z,18.70
2018-05-07T20:46:15.145Z,18.70
2018-05-07T20:48:18.589Z,18.60
2018-05-07T20:50:22.157Z,18.60
2018-05-07T20:52:25.622Z,18.50
2018-05-07T20:54:29.116Z,18.50
2018-05-07T20:56:32.579Z,18.50
2018-05-07T20:58:36.020Z,18.40
2018-05-07T21:00:39.528Z,18.30
2018-05-07T21:02:45.100Z,18.30
2018-05-07T21:04:48.646Z,18.20
2018-05-07T21:06:52.266Z,18.10
2018-05-07T21:08:55.793Z,18.10
2018-05-07T21:10:59.249Z,18.10
2018-05-07T21:13:02.759Z,18.00
2018-05-07T21:15:06.545Z,18.00
2018-05-07T21:17:10.006Z,17.90
2018-05-07T21:19:13.479Z,17.90
2018-05-07T21:21:17.059Z,17.80
2018-05-07T21:23:20.814Z,17.80
2018-05-07T21:25:24.283Z,17.80
2018-05-07T21:27:28.751Z,17.70
2018-05-07T21:29:32.271Z,17.70
2018-05-07T21:31:35.990Z,17.60
2018-05-07T21:33:39.419Z,17.60
2018-05-07T21:35:42.888Z,17.50
2018-05-07T21:37:46.366Z,17.50
2018-05-07T21:39:50.587Z,17.40
2018-05-07T21:41:54.805Z,17.30
2018-05-07T21:43:59.005Z,17.30
2018-05-07T21:46:03.282Z,17.20
2018-05-07T21:48:06.725Z,17.20
2018-05-07T21:50:10.980Z,17.10
2018-05-07T21:52:14.547Z,17.10
2018-05-07T21:54:18.740Z,17.10
2018-05-07T21:56:24.080Z,17.00
2018-05-07T21:58:28.323Z,17.00
2018-05-07T22:00:32.893Z,16.90
2018-05-07T22:02:37.335Z,16.90
2018-05-07T22:04:40.856Z,16.90
2018-05-07T22:06:44.303Z,16.80
2018-05-07T22:08:47.729Z,16.80
2018-05-07T22:10:51.205Z,16.80
2018-05-07T22:12:55.501Z,16.40
2018-05-07T22:14:58.994Z,16.30
2018-05-07T22:17:03.246Z,16.20
2018-05-07T22:19:06.715Z,16.20
2018-05-07T22:21:10.193Z,16.20
2018-05-07T22:23:13.625Z,16.20
2018-05-07T22:25:17.863Z,16.20
2018-05-07T22:27:21.287Z,16.10
2018-05-07T22:29:24.713Z,16.20
2018-05-07T22:31:28.933Z,16.20
2018-05-07T22:33:32.383Z,16.10
2018-05-07T22:35:35.856Z,16.10
2018-05-07T22:37:39.662Z,16.10
2018-05-07T22:39:43.103Z,16.10
2018-05-07T22:41:46.576Z,16.10
2018-05-07T22:43:50.013Z,16.10
2018-05-07T22:45:53.505Z,16.00
2018-05-07T22:47:56.961Z,16.00
2018-05-07T22:50:00.393Z,16.00
2018-05-07T22:52:04.693Z,16.00
2018-05-07T22:54:08.108Z,15.90
2018-05-07T22:56:11.579Z,15.90
2018-05-07T22:58:15.060Z,15.90
2018-05-07T23:00:18.514Z,15.80
2018-05-07T23:02:21.999Z,15.80
2018-05-07T23:04:25.481Z,15.70
2018-05-07T23:06:28.973Z,15.70
2018-05-07T23:08:32.818Z,15.60
2018-05-07T23:10:36.642Z,15.60
2018-05-07T23:12:42.625Z,15.50
2018-05-07T23:14:49.109Z,15.50
2018-05-07T23:16:52.601Z,15.50
2018-05-07T23:18:56.082Z,15.40
2018-05-07T23:20:59.554Z,15.40
2018-05-07T23:23:03.768Z,15.40
2018-05-07T23:25:07.208Z,15.30
2018-05-07T23:27:12.840Z,15.30
2018-05-07T23:29:16.260Z,15.30
2018-05-07T23:31:19.778Z,15.20
2018-05-07T23:33:24.082Z,15.10
2018-05-07T23:35:27.796Z,15.10
2018-05-07T23:37:35.338Z,15.00
2018-05-07T23:39:38.854Z,15.00
2018-05-07T23:41:42.335Z,15.00
2018-05-07T23:43:45.783Z,14.90
2018-05-07T23:45:50.010Z,14.80
2018-05-07T23:47:53.440Z,14.70
2018-05-07T23:49:56.906Z,14.70
2018-05-07T23:52:00.384Z,14.70
2018-05-07T23:54:03.826Z,14.60
2018-05-07T23:56:07.292Z,14.60
2018-05-07T23:58:10.721Z,14.50
